Weather observations for the past three days for
St. James Municipal Airport
Imperial (Metric)
Date Time (cdt) Wind (mph) Vis. (mi.) Weather Sky Cond. Temperature (ºF) Relative Humidity Wind Chill (°F) Heat Index (°F) Pressure Precipitation (in)
Air Dwpt 6 hour altimeter (in) sea level (mb) 1 hr 3 hr 6 hr
Max. Min.
10 10:55 N 20 G 25 10.00 Fair CLR 60.8 28.4 29% 30.1 0.0
10 10:35 NW 16 10.00 Fair CLR 60.8 28.4 29% 30.11 0.0
10 10:15 N 15 10.00 Fair CLR 57.2 28.4 33% 30.11 0.0
10 09:55 N 14 10.00 Fair CLR 57.2 28.4 33% 30.1 0.0
10 09:35 N 17 G 24 10.00 Fair CLR 59 30.2 34% 30.1 0.0
10 09:15 W 16 10.00 Fair CLR 59 26.6 29% 30.1 0.0
10 08:55 W 18 10.00 Fair CLR 57.2 26.6 31% 30.1 0.0
10 08:35 W 16 10.00 Fair CLR 55.4 28.4 36% 30.09 0.0
10 08:15 W 12 10.00 Fair CLR 51.8 28.4 41% 30.1 0.0
10 07:55 W 9 10.00 Fair CLR 48.2 28.4 46% 45 30.1 0.0
10 07:35 SW 7 10.00 Fair CLR 44.6 28.4 53% 41 30.09 0.0
10 07:15 SW 5 10.00 Fair CLR 41 28.4 61% 38 30.09 0.0
10 06:55 SW 6 10.00 Fair CLR 37.4 26.6 65% 33 30.09 0.0
10 06:35 SW 7 10.00 Fair CLR 37.4 26.6 65% 33 30.09 0.0
10 06:15 SW 8 10.00 Fair CLR 35.6 26.6 70% 30 30.08 0.0
10 05:55 SW 8 10.00 Fair CLR 37.4 24.8 60% 32 30.08 0.0
10 05:35 SW 9 10.00 Partly Cloudy SCT085 35.6 24.8 65% 29 30.08 0.0
10 05:15 W 6 10.00 Partly Cloudy SCT085 35.6 26.6 70% 31 30.09 0.0
10 04:55 W 3 10.00 Fair CLR 37.4 24.8 60% 30.08 0.0
10 04:35 W 3 10.00 Fair CLR 37.4 24.8 60% 30.07 0.0
10 04:15 Calm 10.00 Fair CLR 35.6 23 60% 30.06 0.0
10 03:55 Calm 10.00 Fair CLR 35.6 23 60% 30.05 0.0
10 03:35 SW 6 10.00 Fair CLR 37.4 24.8 60% 33 30.04 0.0
10 03:15 SW 7 10.00 Fair CLR 37.4 24.8 60% 33 30.03 0.0
10 02:55 W 6 10.00 Fair CLR 35.6 23 60% 31 30.03 0.0
10 02:35 W 6 10.00 Fair CLR 35.6 23 60% 31 30.03 0.0
10 02:15 W 6 10.00 Fair CLR 37.4 24.8 60% 33 30.03 0.0
10 01:55 W 5 10.00 Fair CLR 37.4 24.8 60% 34 30.03 0.0
10 01:35 SW 7 10.00 Fair CLR 39.2 24.8 56% 35 30.03 0.0
10 01:15 SW 7 10.00 Fair CLR 39.2 24.8 56% 35 30.03 0.0
10 00:55 W 6 10.00 Fair CLR 37.4 21.2 52% 33 30.03 0.0
10 00:35 NW 6 10.00 Fair CLR 37.4 21.2 52% 33 30.03 0.0
10 00:15 NW 6 10.00 Fair CLR 41 21.2 45% 38 30.02 0.0
09 23:55 NW 6 10.00 Fair CLR 41 21.2 45% 38 30.01 0.0
09 23:35 NW 6 10.00 Fair CLR 44.6 21.2 39% 42 30.01 0.0
09 23:15 NW 8 10.00 Fair CLR 44.6 21.2 39% 41 30.01 0.0
09 22:55 NW 6 10.00 Fair CLR 42.8 21.2 42% 40 30 0.0
09 22:35 NW 6 10.00 Fair CLR 42.8 23 46% 40 30 0.0
09 22:15 NW 7 10.00 Fair CLR 46.4 24.8 43% 43 29.99 0.0
09 21:55 N 8 10.00 Fair CLR 46.4 24.8 43% 43 29.98 0.0
09 21:35 N 9 10.00 Fair CLR 48.2 24.8 40% 45 29.97 0.0
09 21:15 N 10 10.00 Fair CLR 50 23 35% 46 29.96 0.0
09 20:55 N 12 10.00 Fair CLR 51.8 23 32% 29.95 0.0
09 20:35 N 15 10.00 Fair CLR 53.6 23 30% 29.93 0.0
09 20:15 NW 18 10.00 Fair CLR 57.2 21.2 25% 29.92 0.0
09 19:55 NW 17 10.00 Fair CLR 57.2 21.2 25% 29.92 0.0
09 19:35 NW 20 10.00 Fair CLR 57.2 21.2 25% 29.91 0.0
09 19:15 NW 21 10.00 Fair and Breezy CLR 59 21.2 23% 29.9 0.0
09 18:55 N 22 10.00 Fair and Breezy CLR 60.8 21.2 22% 29.89 0.0
09 18:35 N 20 G 28 10.00 Fair CLR 60.8 21.2 22% 29.89 0.0
09 18:15 N 20 G 28 10.00 Fair CLR 60.8 21.2 22% 29.88 0.0
09 17:55 NW 20 G 26 10.00 Fair CLR 62.6 21.2 20% 29.88 0.0
09 17:35 N 18 G 33 10.00 Fair CLR 62.6 21.2 20% 29.87 0.0
09 17:15 N 22 G 35 10.00 Fair and Breezy CLR 62.6 19.4 19% 29.86 0.0
09 16:55 NW 24 G 33 10.00 Fair and Breezy CLR 64.4 19.4 18% 29.85 0.0
09 16:35 N 23 G 30 10.00 Fair and Breezy CLR 62.6 21.2 20% 29.85 0.0
09 16:15 N 24 G 32 10.00 Fair and Breezy CLR 64.4 21.2 19% 29.85 0.0
09 15:55 N 23 G 32 10.00 Fair and Breezy CLR 62.6 21.2 20% 29.84 0.0
09 15:35 N 23 G 32 10.00 Fair and Breezy CLR 62.6 21.2 20% 29.84 0.0
09 15:15 N 26 G 37 10.00 Fair and Windy CLR 64.4 23 21% 29.83 0.0
09 14:55 NW 26 G 33 10.00 Fair and Windy CLR 64.4 23 21% 29.82 0.0
09 14:35 N 21 G 33 10.00 Fair and Breezy CLR 62.6 24.8 24% 29.83 0.0
09 14:15 N 26 G 37 10.00 Fair and Windy CLR 62.6 24.8 24% 29.82 0.0
09 13:55 N 24 G 30 10.00 Fair and Breezy CLR 62.6 26.6 25% 29.82 0.0
09 13:35 N 28 G 35 10.00 Fair and Windy CLR 62.6 26.6 25% 29.81 0.0
09 13:15 N 20 G 35 10.00 Fair CLR 62.6 28.4 27% 29.81 0.0
09 12:35 NW 22 G 33 10.00 Fair and Breezy CLR 62.6 28.4 27% 29.8 0.0
09 12:15 N 18 G 31 10.00 Fair CLR 60.8 28.4 29% 29.8 0.0
09 11:55 NW 25 G 32 10.00 Fair and Breezy CLR 60.8 28.4 29% 29.8 0.0
09 11:35 NW 23 G 36 10.00 Fair and Breezy CLR 59 30.2 34% 29.8 0.0
09 11:15 N 24 10.00 A Few Clouds and Breezy FEW050 59 32 36% 29.79 0.0
09 10:55 N 25 G 32 10.00 Fair and Breezy CLR 57.2 35.6 44% 29.78 0.0
09 10:35 N 21 G 28 10.00 A Few Clouds and Breezy FEW039 59 37.4 45% 29.78 0.0
09 10:15 N 21 G 28 10.00 Partly Cloudy and Breezy SCT033 57.2 39.2 51% 29.78 0.0
09 09:55 N 17 G 25 10.00 Mostly Cloudy SCT030 BKN037 55.4 41 59% 29.77 0.0
09 09:35 N 22 G 29 10.00 A Few Clouds and Breezy FEW030 55.4 41 59% 29.76 0.0
09 09:15 N 23 G 30 10.00 A Few Clouds and Breezy FEW029 55.4 41 59% 29.75 0.0
09 08:55 N 25 10.00 A Few Clouds and Breezy FEW027 55.4 41 59% 29.74 0.0
09 08:35 NW 21 G 31 10.00 Partly Cloudy and Breezy SCT070 SCT080 55.4 42.8 63% 29.74 0.0
09 08:15 NW 23 G 30 10.00 Mostly Cloudy and Breezy BKN070 BKN085 53.6 44.6 72% 29.72 0.0
09 07:55 NW 20 G 28 10.00 Partly Cloudy SCT080 53.6 42.8 67% 29.71 0.0
09 07:35 NW 15 10.00 A Few Clouds FEW120 53.6 39.2 58% 29.7 0.0
09 07:15 W 10 10.00 Partly Cloudy SCT120 51.8 37.4 58% 29.7 0.0
09 06:55 W 9 10.00 Mostly Cloudy FEW080 BKN110 51.8 37.4 58% 29.68 0.0
09 06:35 W 10 10.00 Overcast FEW055 SCT065 OVC110 50 37.4 62% 46 29.69 0.0
09 06:15 NW 8 10.00 Overcast FEW065 BKN090 OVC110 50 35.6 58% 47 29.69 0.0
09 05:55 N 9 10.00 Mostly Cloudy BKN100 BKN120 50 35.6 58% 47 29.68 0.0
09 05:35 N 12 10.00 Partly Cloudy FEW100 SCT120 51.8 33.8 50% 29.67 0.0
09 05:15 NW 18 10.00 Fair CLR 51.8 30.2 44% 29.67 0.0
09 04:55 NW 13 10.00 Partly Cloudy SCT110 51.8 30.2 44% 29.66 0.0
09 04:35 NW 12 G 43 9.00 Overcast FEW003 OVC110 51.8 30.2 44% 29.65 0.0
09 04:15 SW 10 10.00 Mostly Cloudy BKN110 48.2 30.2 50% 44 29.61 0.0
09 03:55 SW 10 10.00 Fair CLR 48.2 30.2 50% 44 29.61 0.0
09 03:35 SW 10 10.00 Fair CLR 46.4 30.2 53% 42 29.61 0.0
09 03:15 SW 10 10.00 Fair CLR 46.4 30.2 53% 42 29.6 0.0
09 02:55 SW 12 10.00 Fair CLR 46.4 30.2 53% 42 29.6 0.0
09 02:35 SW 10 10.00 Fair CLR 44.6 30.2 57% 40 29.61 0.0
09 02:15 SW 9 10.00 Fair CLR 44.6 30.2 57% 40 29.62 0.0
09 01:55 SW 10 10.00 Fair CLR 44.6 30.2 57% 40 29.63 0.0
09 01:35 SW 10 10.00 Fair CLR 44.6 28.4 53% 40 29.63 0.0
09 01:15 SW 7 10.00 Fair CLR 44.6 28.4 53% 41 29.64 0.0
09 00:55 SW 8 10.00 Fair CLR 46.4 28.4 50% 43 29.65 0.0
09 00:35 SW 6 10.00 Fair CLR 46.4 30.2 53% 44 29.65 0.0
09 00:15 W 6 10.00 Fair CLR 48.2 28.4 46% 46 29.66 0.0
08 23:55 W 7 10.00 Fair CLR 50 26.6 40% 48 29.66 0.0
08 23:35 NW 7 10.00 Fair CLR 50 26.6 40% 48 29.67 0.0
08 23:15 NW 7 10.00 Fair CLR 51.8 26.6 38% 29.67 0.0
08 22:55 NW 7 10.00 Fair CLR 51.8 26.6 38% 29.67 0.0
08 22:35 NW 8 10.00 Fair CLR 57.2 28.4 33% 29.66 0.0
08 22:15 NW 8 10.00 Fair CLR 57.2 28.4 33% 29.66 0.0
08 21:55 NW 10 10.00 Fair CLR 60.8 28.4 29% 29.66 0.0
08 21:35 NW 12 10.00 Fair CLR 60.8 26.6 27% 29.65 0.0
08 21:15 NW 13 10.00 Fair CLR 62.6 26.6 25% 29.64 0.0
08 20:55 NW 14 10.00 Fair CLR 64.4 26.6 24% 29.63 0.0
08 20:35 NW 14 G 23 10.00 Fair CLR 66.2 24.8 21% 29.63 0.0
08 20:15 NW 22 G 29 10.00 Fair and Breezy CLR 68 26.6 21% 29.62 0.0
08 19:55 N 18 G 31 10.00 Fair CLR 69.8 26.6 20% 29.61 0.0
08 19:35 NW 21 G 31 10.00 Fair and Breezy CLR 71.6 28.4 20% 29.6 0.0
08 19:15 NW 18 G 26 10.00 Fair CLR 71.6 30.2 22% 29.6 0.0
08 18:55 NW 22 G 31 10.00 Fair and Breezy CLR 73.4 30.2 20% 29.6 0.0
08 18:35 NW 20 G 29 10.00 Partly Cloudy SCT110 73.4 30.2 20% 29.6 0.0
08 18:15 N 22 G 28 10.00 Mostly Cloudy and Breezy BKN100 75.2 32 21% 76 29.6 0.0
08 17:55 NW 24 G 31 10.00 Mostly Cloudy and Breezy BKN100 75.2 30.2 19% 76 29.59 0.0
08 17:35 NW 22 G 29 10.00 Partly Cloudy and Breezy SCT110 75.2 30.2 19% 76 29.59 0.0
08 17:15 W 18 G 30 10.00 A Few Clouds FEW120 77 30.2 18% 77 29.59 0.0
08 16:55 NW 15 G 25 10.00 A Few Clouds FEW110 75.2 28.4 18% 76 29.59 0.0
08 16:35 NW 16 G 23 10.00 A Few Clouds FEW110 77 28.4 17% 77 29.6 0.0
08 16:15 NW 14 G 20 10.00 Partly Cloudy SCT110 75.2 28.4 18% 76 29.6 0.0
08 15:55 W 12 G 25 10.00 Partly Cloudy SCT110 75.2 28.4 18% 76 29.61 0.0
08 15:35 NW 15 G 30 10.00 Partly Cloudy SCT110 75.2 28.4 18% 76 29.62 0.0
08 15:15 W 20 10.00 Partly Cloudy SCT110 73.4 26.6 17% 29.63 0.0
08 14:55 W 13 G 24 10.00 Partly Cloudy SCT110 75.2 26.6 16% 76 29.64 0.0
08 14:35 W 12 G 25 10.00 A Few Clouds FEW110 75.2 26.6 16% 76 29.65 0.0
08 14:15 NW 18 G 28 10.00 Partly Cloudy SCT110 73.4 24.8 16% 29.65 0.0
08 13:55 W 18 G 28 10.00 Partly Cloudy SCT120 73.4 24.8 16% 29.66 0.0
08 13:35 W 18 8.00 Unknown Precip SCT120 73.4 24.8 16% 29.67 0.0
08 13:15 W 23 G 29 10.00 A Few Clouds and Breezy FEW120 73.4 24.8 16% 29.67 0.0
08 12:55 W 10 G 24 10.00 Fair CLR 71.6 23 16% 29.68 0.0
08 12:35 SW 15 G 24 10.00 Fair CLR 71.6 23 16% 29.69 0.0
08 12:15 W 10 G 20 5.00 Fair with Haze CLR 69.8 23 17% 29.7 0.0
08 11:55 W 15 G 22 10.00 Fair CLR 69.8 23 17% 29.72 0.0
08 11:35 NW 14 G 23 8.00 A Few Clouds FEW095 69.8 23 17% 29.73 0.0
08 11:15 NW 16 G 23 10.00 Mostly Cloudy BKN095 68 23 18% 29.74 0.0
08 10:55 W 18 10.00 Overcast OVC095 68 23 18% 29.74 0.0
08 10:35 W 18 G 25 10.00 Overcast OVC095 68 23 18% 29.74 0.0
08 10:15 W 18 10.00 Mostly Cloudy BKN100 66.2 23 19% 29.75 0.0
08 09:55 W 15 G 22 10.00 Partly Cloudy SCT095 SCT120 66.2 24.8 21% 29.75 0.0
08 09:35 W 14 10.00 Overcast OVC095 62.6 24.8 24% 29.76 0.0
08 09:15 SW 13 G 18 10.00 Mostly Cloudy BKN100 BKN120 62.6 26.6 25% 29.76 0.0
08 08:55 SW 12 10.00 Mostly Cloudy SCT100 BKN120 59 28.4 31% 29.77 0.0
08 08:35 SW 10 10.00 Mostly Cloudy SCT100 BKN120 57.2 28.4 33% 29.77 0.0
08 08:15 SW 9 10.00 Mostly Cloudy BKN110 53.6 28.4 38% 29.77 0.0
08 07:55 SW 9 10.00 Mostly Cloudy BKN110 51.8 28.4 41% 29.77 0.0
08 07:35 SW 9 10.00 A Few Clouds FEW120 48.2 28.4 46% 45 29.77 0.0
08 07:15 SW 8 10.00 Fair CLR 44.6 28.4 53% 41 29.78 0.0
08 06:55 SW 8 10.00 Fair CLR 42.8 26.6 53% 39 29.78 0.0
08 06:35 SW 8 10.00 Fair CLR 41 26.6 57% 36 29.77 0.0
08 06:15 S 8 10.00 Fair CLR 41 26.6 57% 36 29.77 0.0
08 05:55 SW 9 10.00 Fair CLR 41 26.6 57% 36 29.77 0.0
08 05:35 SW 8 10.00 Fair CLR 41 26.6 57% 36 29.78 0.0
08 05:15 S 8 10.00 Fair CLR 41 26.6 57% 36 29.78 0.0
08 04:55 S 8 10.00 Fair CLR 41 24.8 53% 36 29.78 0.0
08 04:35 S 10 10.00 Fair CLR 44.6 23 43% 40 29.78 0.0
08 04:15 SW 6 10.00 Fair CLR 39.2 24.8 56% 36 29.79 0.0
08 03:55 Calm 10.00 Fair CLR 42.8 24.8 49% 29.79 0.0
08 03:35 S 6 10.00 Fair CLR 41 26.6 57% 38 29.79 0.0
08 03:15 S 6 10.00 Fair CLR 42.8 24.8 49% 40 29.79 0.0
08 02:55 S 6 10.00 Fair CLR 41 24.8 53% 38 29.79 0.0
08 02:35 S 6 10.00 Fair CLR 41 26.6 57% 38 29.8 0.0
08 02:15 S 6 10.00 Fair CLR 39.2 24.8 56% 36 29.8 0.0
08 01:55 S 6 10.00 Fair CLR 39.2 24.8 56% 36 29.81 0.0
08 01:35 S 6 10.00 Fair CLR 39.2 24.8 56% 36 29.81 0.0
08 01:15 S 5 10.00 Fair CLR 41 24.8 53% 38 29.81 0.0
08 00:55 S 5 10.00 Fair CLR 41 24.8 53% 38 29.82 0.0
08 00:35 S 5 10.00 Fair CLR 42.8 24.8 49% 41 29.82 0.0
08 00:15 S 5 10.00 Fair CLR 41 26.6 57% 38 29.82 0.0
07 23:55 S 5 10.00 Fair CLR 44.6 24.8 46% 43 29.82 0.0
07 23:35 Calm 10.00 Fair CLR 42.8 23 46% 29.83 0.0
07 23:15 Calm 10.00 Fair CLR 44.6 23 43% 29.83 0.0
07 22:55 Calm 10.00 Fair CLR 48.2 23 37% 29.83 0.0
07 22:35 Calm 10.00 Fair CLR 48.2 24.8 40% 29.83 0.0
07 22:15 Calm 10.00 Fair CLR 48.2 24.8 40% 29.82 0.0
07 21:55 Calm 10.00 Fair CLR 50 21.2 32% 29.82 0.0
07 21:35 N 6 10.00 Fair CLR 51.8 21.2 30% 29.82 0.0
07 21:15 N 7 10.00 Fair CLR 51.8 23 32% 29.81 0.0
07 20:55 N 7 10.00 Fair CLR 53.6 24.8 33% 29.81 0.0
07 20:35 N 7 10.00 Fair CLR 53.6 24.8 33% 29.8 0.0
07 20:15 NW 10 10.00 Fair CLR 57.2 21.2 25% 29.79 0.0
07 19:55 NW 8 10.00 Fair CLR 60.8 21.2 22% 29.79 0.0
07 19:35 NW 10 10.00 Fair CLR 60.8 21.2 22% 29.78 0.0
07 19:15 NW 15 10.00 Fair CLR 62.6 21.2 20% 29.78 0.0
07 18:55 NW 14 9.00 Fair CLR 62.6 21.2 20% 29.79 0.0
07 18:35 W 9 G 17 10.00 Fair CLR 62.6 19.4 19% 29.79 0.0
07 18:15 NW 3 G 17 10.00 Fair CLR 62.6 19.4 19% 29.8 0.0
07 17:55 NW 14 G 22 10.00 Fair CLR 62.6 19.4 19% 29.79 0.0
07 17:35 N 7 G 15 10.00 Fair CLR 62.6 19.4 19% 29.8 0.0
07 17:15 NW 10 G 23 10.00 Fair CLR 62.6 19.4 19% 29.8 0.0
07 16:55 NW 14 10.00 Fair CLR 62.6 19.4 19% 29.81 0.0
07 16:35 N 12 G 22 10.00 Fair CLR 62.6 19.4 19% 29.81 0.0
07 16:15 SW 8 G 15 10.00 Fair CLR 60.8 19.4 20% 29.82 0.0
07 15:55 W 15 10.00 Fair CLR 60.8 19.4 20% 29.82 0.0
07 15:35 NW 17 G 24 10.00 Fair CLR 60.8 19.4 20% 29.82 0.0
07 15:15 NW 15 G 21 10.00 Fair CLR 62.6 19.4 19% 29.83 0.0
07 14:55 NW 9 G 21 10.00 Fair CLR 60.8 19.4 20% 29.84 0.0
07 14:35 NW 10 G 23 10.00 Fair CLR 59 19.4 21% 29.84 0.0
07 14:15 NW 13 G 20 10.00 Fair CLR 59 19.4 21% 29.84 0.0
07 13:55 W 7 G 13 9.00 Fair CLR 59 21.2 23% 29.85 0.0
07 13:35 N 14 G 21 10.00 Fair CLR 59 21.2 23% 29.85 0.0
07 13:15 N 8 G 21 10.00 Fair CLR 57.2 21.2 25% 29.86 0.0
07 12:55 NW 7 G 14 10.00 Fair CLR 55.4 21.2 26% 29.86 0.0
07 12:35 Calm 10.00 Fair CLR 55.4 21.2 26% 29.87 0.0
07 12:15 N 6 10.00 Fair CLR 53.6 21.2 28% 29.87 0.0
07 11:55 Vrbl 5 G 14 10.00 Fair CLR 55.4 23 28% 29.88 0.0
07 11:35 NE 7 G 14 10.00 Fair CLR 53.6 23 30% 29.88 0.0
07 11:15 Calm 10.00 Fair CLR 51.8 23 32% 29.88 0.0
Date Time (cdt) Wind (mph) Vis. (mi.) Weather Sky Cond. Air Dwpt Max. Min. Relative Humidity Wind Chill (°F) Heat Index (°F) altimeter (in) sea level (mb) 1 hr 3 hr 6 hr
6 hour
Temperature (ºF) Pressure Precipitation (in)